KFWA/FWA METAR and TAF weather

Enter ICAO airport designator
Station Type Date Time Source
KFWA METAR 2023/01/30 10:54 UTC NOAA

KFWA 301054Z 33006KT 8SM -SN FEW009 BKN028 OVC039 M02/M05 A3023 RMK AO2 SLP248 P0000 T10221050 $


Station Type Date Time Source
KFWA Decoded METAR 2023/01/30 10:54 UTC NOAA

FORT WAYNE INTERNATIONAL, IN, United States (KFWA) 41-00N 85-12W 248M
Jan 30, 2023 - 05:54 AM EST / 2023.01.30 1054 UTC
Wind: from the NNW (330 degrees) at 7 MPH (6 KT):0
Visibility: 8 mile(s):0
Sky conditions: overcast
Weather: light snow
Precipitation last hour: A trace
Temperature: 28.0 F (-2.2 C)
Windchill: 21 F (-6 C):1
Dew Point: 23.0 F (-5.0 C)
Relative Humidity: 81%
Pressure (altimeter): 30.23 in. Hg (1023 hPa)
ob: KFWA 301054Z 33006KT 8SM -SN FEW009 BKN028 OVC039 M02/M05 A3023 RMK AO2 SLP248 P0000 T10221050
cycle: 11

Station Type Date Time Source
KFWA TAF 2023/01/30 06:24 UTC NOAA

TAF KFWA 300521Z 3006/3106 02004KT P6SM OVC020
FM300830 34005KT P6SM VCSH OVC015
FM302300 32009KT P6SM BKN020

Example: see airport list